Time;durP1;ratioP1;P1;durP2;ratioP2;P2;SDS_P1;SDS_P2;PMS_P1;PMS_P2;Temp;Humidity;BMP_temperature;BMP_pressure;BME280_temperature;BME280_humidity;BME280_pressure;Samples;Min_cycle;Max_cycle;Signal;HPM_P1;HPM_P2
2024/01/24 00:01:31;;;;;;;10.63;2.50;;;;;;;17.96;53.04;101284.31;5070428;28;20437;-65
2024/01/24 00:03:57;;;;;;;6.47;1.97;;;;;;;17.98;53.22;101282.75;5071049;28;20178;-64
2024/01/24 00:06:22;;;;;;;7.80;2.60;;;;;;;17.94;52.88;101276.06;5071023;28;20177;-63
2024/01/24 00:08:48;;;;;;;4.03;1.60;;;;;;;17.92;53.11;101266.19;5055658;28;20178;-64
2024/01/24 00:11:14;;;;;;;5.17;2.00;;;;;;;17.92;53.34;101254.75;5056033;28;20213;-65
2024/01/24 00:13:39;;;;;;;5.40;1.93;;;;;;;17.93;52.92;101243.00;5072220;28;20222;-64
2024/01/24 00:16:05;;;;;;;5.57;2.10;;;;;;;17.91;53.18;101225.34;5071355;28;20179;-64
2024/01/24 00:18:30;;;;;;;7.10;2.40;;;;;;;17.89;52.88;101219.16;5072069;28;20178;-65
2024/01/24 00:20:56;;;;;;;9.10;2.40;;;;;;;17.91;52.85;101225.34;5055119;28;20175;-65
2024/01/24 00:23:23;;;;;;;6.63;2.43;;;;;;;17.89;52.94;101222.03;5037559;28;20170;-64
2024/01/24 00:25:48;;;;;;;5.80;2.27;;;;;;;17.89;53.45;101233.44;5037583;28;20191;-65
2024/01/24 00:28:15;;;;;;;7.23;2.23;;;;;;;17.90;52.92;101245.72;5050852;28;20502;-64
2024/01/24 00:30:40;;;;;;;5.80;2.37;;;;;;;17.88;53.17;101236.66;5051236;28;20223;-63
2024/01/24 00:33:06;;;;;;;5.67;1.80;;;;;;;17.88;52.93;101237.50;5054206;28;20440;-64
2024/01/24 00:35:31;;;;;;;5.03;1.50;;;;;;;17.88;53.02;101231.78;5049575;28;20186;-64
2024/01/24 00:37:57;;;;;;;5.73;2.47;;;;;;;17.87;52.85;101230.13;5050655;28;20757;-63
2024/01/24 00:40:22;;;;;;;5.27;1.83;;;;;;;17.87;52.84;101230.13;5035118;28;20175;-64
2024/01/24 00:42:48;;;;;;;4.53;1.73;;;;;;;17.88;53.32;101239.50;5068464;28;20175;-64
2024/01/24 00:45:13;;;;;;;5.20;1.90;;;;;;;17.88;52.82;101216.66;5071597;28;20177;-63
2024/01/24 00:47:39;;;;;;;7.63;2.17;;;;;;;17.87;52.72;101200.72;5072243;28;20178;-63
2024/01/24 00:50:06;;;;;;;6.00;2.10;;;;;;;17.89;52.74;101204.88;5055309;28;20210;-63
2024/01/24 00:52:32;;;;;;;7.57;2.00;;;;;;;17.86;52.77;101194.16;5057866;28;20732;-64
2024/01/24 00:54:58;;;;;;;5.33;1.93;;;;;;;17.86;52.90;101184.78;5071943;28;20416;-63
2024/01/24 00:57:23;;;;;;;7.97;2.10;;;;;;;17.88;52.57;101183.22;5070678;28;20179;-64
2024/01/24 00:59:49;;;;;;;5.90;2.13;;;;;;;17.93;52.58;101182.16;5038729;28;20260;-63
2024/01/24 01:02:14;;;;;;;4.57;2.13;;;;;;;17.92;52.53;101186.19;5071908;28;20170;-63
2024/01/24 01:04:39;;;;;;;5.50;1.77;;;;;;;17.87;52.23;101178.72;5057215;28;20182;-64
2024/01/24 01:07:05;;;;;;;4.57;2.03;;;;;;;17.90;53.09;101183.69;5051956;28;20182;-65
2024/01/24 01:09:30;;;;;;;5.47;2.20;;;;;;;17.89;52.73;101182.03;5069934;28;20177;-63
2024/01/24 01:11:56;;;;;;;6.80;2.40;;;;;;;17.90;52.72;101177.16;5086960;28;20390;-64
2024/01/24 01:14:21;;;;;;;5.33;1.70;;;;;;;17.87;52.93;101163.59;5070715;28;20202;-65
2024/01/24 01:16:46;;;;;;;6.60;2.43;;;;;;;17.87;52.67;101177.88;5071059;28;20175;-64
2024/01/24 01:19:12;;;;;;;7.23;2.20;;;;;;;17.89;52.44;101169.75;5088303;28;20178;-64
2024/01/24 01:21:40;;;;;;;5.60;1.80;;;;;;;17.88;52.59;101173.81;5037602;28;20210;-63
2024/01/24 01:24:06;;;;;;;4.70;1.60;;;;;;;17.89;52.38;101166.91;5054691;28;20256;-64
2024/01/24 01:26:32;;;;;;;4.10;1.60;;;;;;;17.87;52.38;101178.72;5063129;28;20582;-64
2024/01/24 01:28:58;;;;;;;5.07;2.10;;;;;;;17.88;52.33;101180.38;5033256;28;21078;-64
2024/01/24 01:31:24;;;;;;;7.63;2.07;;;;;;;17.88;52.07;101173.81;5035069;28;20457;-64
2024/01/24 01:33:49;;;;;;;4.83;2.00;;;;;;;17.86;52.43;101188.44;5030904;28;20176;-63
2024/01/24 01:36:14;;;;;;;6.93;2.00;;;;;;;17.84;52.67;101179.41;5038773;28;20232;-63
2024/01/24 01:38:40;;;;;;;4.57;1.77;;;;;;;17.84;52.60;101187.97;5053162;28;20186;-64
2024/01/24 01:41:05;;;;;;;3.27;1.50;;;;;;;17.83;52.63;101189.16;5037389;28;20175;-65
2024/01/24 01:43:31;;;;;;;4.53;1.87;;;;;;;17.82;52.85;101195.22;5037479;28;20187;-63
2024/01/24 01:45:59;;;;;;;3.90;1.60;;;;;;;17.84;52.54;101199.41;5053388;28;20237;-64
2024/01/24 01:48:25;;;;;;;6.43;2.00;;;;;;;17.80;52.66;101198.44;5036922;28;20175;-63
2024/01/24 01:50:51;;;;;;;4.00;1.90;;;;;;;17.83;52.63;101188.31;5069749;28;20996;-64
2024/01/24 01:53:16;;;;;;;4.90;1.80;;;;;;;17.80;52.81;101195.56;5036446;28;20472;-64
2024/01/24 01:55:42;;;;;;;6.20;1.80;;;;;;;17.83;52.70;101189.16;5037365;28;20183;-64
2024/01/24 01:58:08;;;;;;;6.03;1.97;;;;;;;17.81;52.78;101180.09;5040168;28;20178;-64
2024/01/24 02:00:36;;;;;;;3.93;1.83;;;;;;;17.81;52.61;101180.09;5054594;28;20788;-65
2024/01/24 02:03:02;;;;;;;4.87;1.90;;;;;;;17.78;52.74;101179.97;5036876;28;20172;-64
2024/01/24 02:05:27;;;;;;;4.03;2.03;;;;;;;17.78;52.78;101172.25;5018576;28;20418;-64
2024/01/24 02:07:53;;;;;;;4.40;1.73;;;;;;;17.76;52.74;101171.75;5020498;28;20191;-63
2024/01/24 02:10:18;;;;;;;3.40;1.57;;;;;;;17.76;53.11;101160.34;5053810;28;20211;-66
2024/01/24 02:12:44;;;;;;;4.10;1.60;;;;;;;17.77;52.76;101164.88;5036938;28;20179;-64
2024/01/24 02:15:09;;;;;;;7.17;1.97;;;;;;;17.77;52.43;101156.31;5053044;28;20207;-64
2024/01/24 02:17:35;;;;;;;6.53;1.60;;;;;;;17.77;52.95;101162.03;5032968;28;20178;-64
2024/01/24 02:20:01;;;;;;;6.40;1.63;;;;;;;17.77;52.71;101155.47;5053269;28;20838;-64
2024/01/24 02:22:26;;;;;;;3.73;1.40;;;;;;;17.77;52.63;101155.47;5020029;28;20419;-65
2024/01/24 02:24:52;;;;;;;3.80;1.87;;;;;;;17.76;52.53;101153.81;5053066;28;20202;-64
2024/01/24 02:27:17;;;;;;;3.30;1.60;;;;;;;17.78;52.23;101155.13;5052820;28;20663;-64
2024/01/24 02:29:43;;;;;;;4.50;1.67;;;;;;;17.76;52.49;101148.91;5036415;28;20178;-63
2024/01/24 02:32:08;;;;;;;5.20;1.43;;;;;;;17.76;52.74;101148.91;5053616;28;20171;-64
2024/01/24 02:34:34;;;;;;;3.90;1.70;;;;;;;17.78;52.77;101155.13;5036818;28;20175;-63
2024/01/24 02:36:59;;;;;;;5.13;1.97;;;;;;;17.78;52.41;101149.41;5037043;28;20182;-63
2024/01/24 02:39:25;;;;;;;6.83;1.53;;;;;;;17.76;52.71;101157.47;5037095;28;20212;-63
2024/01/24 02:41:51;;;;;;;3.37;1.30;;;;;;;17.76;52.48;101157.47;5047249;28;20184;-64
2024/01/24 02:44:16;;;;;;;3.13;1.40;;;;;;;17.75;52.76;101147.25;5000880;28;20430;-63
2024/01/24 02:46:42;;;;;;;5.40;2.17;;;;;;;17.76;52.27;101143.22;5045337;28;20183;-63
2024/01/24 02:49:07;;;;;;;3.07;1.47;;;;;;;17.77;52.28;101144.06;5054024;28;20175;-64
2024/01/24 02:51:33;;;;;;;4.03;1.60;;;;;;;17.79;52.17;101148.22;5071225;28;20264;-64
2024/01/24 02:53:58;;;;;;;5.50;1.60;;;;;;;17.75;52.57;101147.25;5054126;28;20224;-63
2024/01/24 02:56:24;;;;;;;3.43;1.30;;;;;;;17.75;52.50;101141.53;5019736;28;20550;-64
2024/01/24 02:58:49;;;;;;;3.50;1.37;;;;;;;17.75;52.46;101135.84;5072146;28;20201;-66
2024/01/24 03:01:15;;;;;;;3.17;1.50;;;;;;;17.76;52.26;101142.38;5037163;28;20178;-64
2024/01/24 03:03:41;;;;;;;4.43;1.33;;;;;;;17.76;52.55;101153.81;5054186;28;20179;-63
2024/01/24 03:06:07;;;;;;;3.90;1.97;;;;;;;17.76;52.18;101148.09;5035955;28;20450;-64
2024/01/24 03:08:49;;;;;;;6.10;1.50;;;;;;;17.76;51.90;101154.63;5036389;28;20224;-63
2024/01/24 03:11:15;;;;;;;4.77;1.70;;;;;;;17.76;52.61;101159.53;5050247;28;20203;-64
2024/01/24 03:13:40;;;;;;;4.00;1.60;;;;;;;17.76;52.63;101162.38;5035215;28;20447;-64
2024/01/24 03:16:07;;;;;;;2.87;1.50;;;;;;;17.75;52.32;101172.16;5046316;28;20190;-64
2024/01/24 03:18:33;;;;;;;3.03;1.63;;;;;;;17.74;52.30;101167.59;5035696;28;20262;-64
2024/01/24 03:20:58;;;;;;;3.30;1.50;;;;;;;17.77;52.92;101164.88;5017775;28;20437;-63
2024/01/24 03:23:24;;;;;;;3.70;1.60;;;;;;;17.74;52.39;101162.72;5049692;28;20437;-64
2024/01/24 03:25:50;;;;;;;3.40;1.60;;;;;;;17.73;52.71;101175.34;5032780;28;20187;-63
2024/01/24 03:28:16;;;;;;;3.90;1.70;;;;;;;17.73;52.44;101177.34;5059158;28;20186;-64
2024/01/24 03:30:41;;;;;;;3.97;1.20;;;;;;;17.75;52.22;101172.97;5056010;28;20467;-64
2024/01/24 03:33:07;;;;;;;2.60;1.33;;;;;;;17.71;52.58;101168.31;5052448;28;20273;-64
2024/01/24 03:35:32;;;;;;;5.03;1.90;;;;;;;17.73;52.23;101158.22;5071785;28;20193;-64
2024/01/24 03:37:57;;;;;;;4.90;1.40;;;;;;;17.72;52.41;101147.13;5039905;28;20191;-64
2024/01/24 03:40:23;;;;;;;2.57;1.30;;;;;;;17.70;52.55;101147.50;5071885;28;20182;-64
2024/01/24 03:42:48;;;;;;;7.33;2.60;;;;;;;17.70;52.09;101150.34;5038937;28;20216;-65
2024/01/24 03:45:14;;;;;;;3.60;1.50;;;;;;;17.71;52.73;101151.19;5056459;28;20167;-64
2024/01/24 03:47:39;;;;;;;2.77;1.47;;;;;;;17.69;52.62;101142.13;5091529;28;20175;-64
2024/01/24 03:50:05;;;;;;;5.53;1.60;;;;;;;17.70;52.57;101166.66;5090364;28;20209;-63
2024/01/24 03:52:30;;;;;;;5.23;1.73;;;;;;;17.73;52.31;101177.34;5073024;28;20154;-64
2024/01/24 03:54:56;;;;;;;4.63;1.60;;;;;;;17.73;52.33;101183.91;5056260;28;20182;-63
2024/01/24 03:57:21;;;;;;;3.90;1.70;;;;;;;17.74;52.59;101176.16;5039216;28;20183;-64
2024/01/24 03:59:47;;;;;;;4.77;1.83;;;;;;;17.71;52.41;101157.72;5090316;28;20186;-63
2024/01/24 04:02:12;;;;;;;3.50;1.30;;;;;;;17.74;52.72;101162.72;5070104;28;20175;-64
2024/01/24 04:04:38;;;;;;;3.30;1.50;;;;;;;17.69;52.53;101165.81;5071057;28;20183;-64
2024/01/24 04:07:03;;;;;;;3.90;1.40;;;;;;;17.69;52.50;101147.84;5072476;28;20159;-64
2024/01/24 04:09:29;;;;;;;2.93;1.50;;;;;;;17.68;52.60;101163.31;5055158;28;20198;-64
2024/01/24 04:11:54;;;;;;;3.33;1.30;;;;;;;17.70;52.54;101163.81;5071520;28;20190;-66
2024/01/24 04:14:20;;;;;;;3.23;1.27;;;;;;;17.72;52.21;101159.41;5056932;28;20259;-63
2024/01/24 04:16:45;;;;;;;2.80;1.33;;;;;;;17.70;52.36;101176.03;5054626;28;20182;-64
2024/01/24 04:19:11;;;;;;;4.03;1.40;;;;;;;17.67;52.35;101170.22;5037562;28;20186;-64
2024/01/24 04:21:42;;;;;;;2.40;1.20;;;;;;;17.70;52.37;101172.38;5071275;28;20178;-64
2024/01/24 04:24:07;;;;;;;4.80;1.40;;;;;;;17.69;52.75;101177.25;5088924;28;20722;-64
2024/01/24 04:26:33;;;;;;;3.33;1.53;;;;;;;17.70;52.54;101173.19;5064758;28;20493;-65
2024/01/24 04:28:58;;;;;;;3.47;1.20;;;;;;;17.71;52.66;101176.91;5025202;28;21011;-64
2024/01/24 04:31:24;;;;;;;3.63;1.47;;;;;;;17.70;52.12;101178.09;5047023;28;20666;-64
2024/01/24 04:33:49;;;;;;;3.77;1.63;;;;;;;17.69;52.38;101177.25;5035563;28;20578;-64
2024/01/24 04:36:14;;;;;;;2.40;1.00;;;;;;;17.70;52.50;101189.50;5035149;28;20187;-64
2024/01/24 04:38:40;;;;;;;2.90;1.30;;;;;;;17.66;52.28;101183.66;5035063;28;20197;-63
2024/01/24 04:41:08;;;;;;;3.70;1.40;;;;;;;17.66;52.40;101157.94;5035550;28;20182;-63
2024/01/24 04:43:34;;;;;;;2.50;1.23;;;;;;;17.71;51.85;101169.13;5019293;28;20783;-63
2024/01/24 04:46:00;;;;;;;2.20;1.10;;;;;;;17.68;52.69;101147.03;5033844;28;20437;-64
2024/01/24 04:48:25;;;;;;;4.93;1.50;;;;;;;17.70;52.36;101149.53;5050993;28;20413;-64
2024/01/24 04:50:50;;;;;;;4.83;1.60;;;;;;;17.69;52.67;101148.69;5033705;28;20255;-64
2024/01/24 04:53:16;;;;;;;3.30;1.40;;;;;;;17.70;52.39;101152.38;5051143;28;20178;-64
2024/01/24 04:55:41;;;;;;;2.70;1.30;;;;;;;17.69;52.32;101147.84;5033143;28;20215;-63
2024/01/24 04:58:07;;;;;;;3.53;1.60;;;;;;;17.71;52.19;101145.47;5034184;28;20166;-64
2024/01/24 05:00:32;;;;;;;2.20;1.30;;;;;;;17.69;52.36;101156.41;5019539;28;20642;-64
2024/01/24 05:02:58;;;;;;;3.57;1.10;;;;;;;17.70;51.96;101161.75;4997632;28;20211;-64
2024/01/24 05:05:23;;;;;;;2.63;1.10;;;;;;;17.69;52.48;101157.25;5041280;28;20183;-63
2024/01/24 05:07:49;;;;;;;2.77;1.07;;;;;;;17.69;52.37;101165.81;5033424;28;20270;-64
2024/01/24 05:10:14;;;;;;;3.10;1.47;;;;;;;17.68;52.23;101158.44;5050120;28;20206;-63
2024/01/24 05:12:40;;;;;;;3.60;1.30;;;;;;;17.71;52.15;101145.47;5036425;28;20187;-65
2024/01/24 05:15:08;;;;;;;3.40;1.40;;;;;;;17.70;52.49;101156.06;5053567;28;20248;-64
2024/01/24 05:17:33;;;;;;;3.23;1.13;;;;;;;17.69;52.28;101148.69;5020300;28;21535;-64
2024/01/24 05:19:59;;;;;;;3.17;1.30;;;;;;;17.71;52.55;101149.16;5054693;28;20504;-64
2024/01/24 05:22:24;;;;;;;4.83;1.10;;;;;;;17.72;52.73;101145.13;5053872;28;20225;-63
2024/01/24 05:24:50;;;;;;;2.10;1.10;;;;;;;17.70;52.23;101160.94;5039296;28;20236;-64
2024/01/24 05:27:16;;;;;;;2.63;0.93;;;;;;;17.69;52.21;101162.13;5066976;28;20229;-64
2024/01/24 05:29:45;;;;;;;2.50;1.33;;;;;;;17.71;52.06;101140.59;5073157;28;20458;-64
2024/01/24 05:32:10;;;;;;;3.23;1.50;;;;;;;17.71;52.34;101151.19;5075835;28;20641;-63
2024/01/24 05:34:36;;;;;;;2.10;0.90;;;;;;;17.70;52.29;101132.41;5058804;28;20424;-64
2024/01/24 05:37:01;;;;;;;2.53;0.90;;;;;;;17.71;52.13;101137.72;5075424;28;20591;-63
2024/01/24 05:39:27;;;;;;;2.67;1.47;;;;;;;17.71;52.10;101143.44;5071834;28;20178;-64
2024/01/24 05:41:52;;;;;;;2.77;1.17;;;;;;;17.69;51.94;101148.69;5058366;28;20175;-63
2024/01/24 05:44:17;;;;;;;3.07;1.10;;;;;;;17.70;52.25;101149.53;5038003;28;20259;-63
2024/01/24 05:46:43;;;;;;;4.63;1.90;;;;;;;17.73;52.19;101143.94;5040776;28;20191;-64
2024/01/24 05:49:08;;;;;;;2.63;1.47;;;;;;;17.71;52.46;101134.06;5067732;28;20190;-63
2024/01/24 05:51:34;;;;;;;1.80;0.70;;;;;;;17.74;52.09;101137.03;5052126;28;20198;-64
2024/01/24 05:53:59;;;;;;;3.00;1.10;;;;;;;17.73;52.34;101143.94;5055992;28;20190;-64
2024/01/24 05:56:25;;;;;;;2.80;1.37;;;;;;;17.71;52.74;101137.72;5051571;28;20186;-64
2024/01/24 05:58:50;;;;;;;3.00;1.20;;;;;;;17.75;52.07;101132.97;5058019;28;20182;-63
2024/01/24 06:01:16;;;;;;;2.23;1.00;;;;;;;17.74;52.30;101142.75;5070036;28;20186;-64
2024/01/24 06:03:41;;;;;;;3.00;1.33;;;;;;;17.74;52.46;101157.03;5046726;28;20278;-64
2024/01/24 06:06:07;;;;;;;2.33;1.10;;;;;;;17.74;51.85;101151.31;5050302;28;20171;-64
2024/01/24 06:08:32;;;;;;;2.00;1.30;;;;;;;17.73;52.21;101158.22;5054354;28;20190;-64
2024/01/24 06:10:58;;;;;;;3.43;1.50;;;;;;;17.72;52.24;101153.69;5069680;28;20198;-64
2024/01/24 06:13:24;;;;;;;2.40;1.10;;;;;;;17.76;51.89;101159.53;5070195;28;20206;-64
2024/01/24 06:15:50;;;;;;;1.70;0.90;;;;;;;17.69;52.84;101154.41;5086197;28;20494;-63
2024/01/24 06:18:15;;;;;;;2.40;1.00;;;;;;;17.68;51.82;101147.03;5054605;28;20175;-64
2024/01/24 06:20:41;;;;;;;2.33;1.20;;;;;;;17.75;53.51;101141.53;5057069;28;20183;-64
2024/01/24 06:23:06;;;;;;;2.37;1.10;;;;;;;17.92;56.20;101124.19;5064783;28;20189;-65
2024/01/24 06:25:32;;;;;;;3.77;1.30;;;;;;;18.33;58.60;101115.38;5054048;28;20186;-65
2024/01/24 06:27:58;;;;;;;4.23;2.13;;;;;;;18.42;58.58;101127.50;5059002;28;20222;-66
2024/01/24 06:30:23;;;;;;;8.77;2.27;;;;;;;18.26;58.57;101143.69;5076166;28;20460;-63
2024/01/24 06:32:49;;;;;;;5.10;1.50;;;;;;;18.13;58.12;101138.34;5095107;28;20205;-65
2024/01/24 06:35:15;;;;;;;5.57;1.57;;;;;;;18.02;57.96;101140.84;5055413;28;20187;-65
2024/01/24 06:37:40;;;;;;;4.17;1.53;;;;;;;18.07;57.40;101143.44;5058189;28;20440;-65
2024/01/24 06:40:07;;;;;;;5.00;1.27;;;;;;;18.05;57.56;101130.72;5053627;28;20178;-66
2024/01/24 06:42:34;;;;;;;6.27;1.33;;;;;;;18.27;56.92;101131.06;5089527;28;20186;-65
2024/01/24 06:45:00;;;;;;;8.23;2.00;;;;;;;18.47;57.01;101121.53;5077587;28;20504;-66
2024/01/24 06:47:25;;;;;;;11.00;2.00;;;;;;;18.57;57.57;101121.03;5055996;28;20179;-65
2024/01/24 06:49:51;;;;;;;4.87;1.83;;;;;;;18.68;58.65;101127.09;5024564;28;20178;-64
2024/01/24 06:52:16;;;;;;;6.67;2.30;;;;;;;18.56;57.65;101127.13;5071742;28;20186;-66
2024/01/24 06:54:42;;;;;;;5.73;1.50;;;;;;;18.47;57.78;101138.69;5071178;28;20592;-65
2024/01/24 06:57:07;;;;;;;7.47;2.20;;;;;;;18.39;58.58;101133.94;5052734;28;20187;-66
2024/01/24 06:59:33;;;;;;;6.67;1.90;;;;;;;18.34;58.61;101137.06;5061673;28;20244;-66
2024/01/24 07:01:59;;;;;;;3.27;1.50;;;;;;;18.40;58.64;101140.47;5062273;28;20647;-66
2024/01/24 07:04:25;;;;;;;4.00;2.00;;;;;;;18.43;58.74;101126.31;5054775;28;20437;-65
2024/01/24 07:06:50;;;;;;;6.90;1.70;;;;;;;18.31;58.45;101137.72;5072089;28;20247;-65
2024/01/24 07:09:16;;;;;;;4.23;1.80;;;;;;;18.29;58.01;101137.25;5042582;28;20437;-66
2024/01/24 07:11:41;;;;;;;6.80;1.60;;;;;;;18.22;57.57;101137.00;5068131;28;20206;-66
2024/01/24 07:14:07;;;;;;;8.00;1.73;;;;;;;18.18;57.66;101127.50;5070236;28;20206;-66
2024/01/24 07:16:32;;;;;;;5.57;1.87;;;;;;;18.17;56.46;101136.44;5057239;28;20185;-66
2024/01/24 07:18:58;;;;;;;11.73;2.30;;;;;;;18.12;56.38;101146.06;5091564;28;20647;-66
2024/01/24 07:21:24;;;;;;;3.90;1.43;;;;;;;18.04;56.31;101144.19;5036196;28;20638;-66
2024/01/24 07:23:50;;;;;;;4.80;1.70;;;;;;;18.04;55.85;101144.19;5043883;28;20182;-66
2024/01/24 07:26:15;;;;;;;6.73;2.07;;;;;;;18.00;55.76;101154.66;5053252;28;20525;-64
2024/01/24 07:28:41;;;;;;;3.73;1.67;;;;;;;18.03;56.19;101145.38;5069164;28;20178;-63
2024/01/24 07:31:06;;;;;;;12.20;2.30;;;;;;;18.01;55.55;101139.16;5039838;28;20214;-64
2024/01/24 07:33:32;;;;;;;14.73;3.03;;;;;;;17.99;56.12;101138.72;5036556;28;20183;-64
2024/01/24 07:35:57;;;;;;;10.73;2.10;;;;;;;17.94;56.72;101141.81;5065738;28;20575;-66
2024/01/24 07:38:23;;;;;;;8.70;1.97;;;;;;;17.95;57.54;101128.34;5037770;28;20205;-64
2024/01/24 07:40:48;;;;;;;5.63;1.60;;;;;;;17.93;57.31;101137.28;5053666;28;20527;-65
2024/01/24 07:43:14;;;;;;;11.03;2.63;;;;;;;17.95;57.12;101134.03;5071339;28;20178;-64
2024/01/24 07:45:39;;;;;;;9.93;2.00;;;;;;;17.97;56.86;101143.94;5090317;28;20695;-65
2024/01/24 07:48:05;;;;;;;8.30;2.03;;;;;;;17.96;57.19;101153.69;5071407;28;20273;-64
2024/01/24 07:50:31;;;;;;;10.43;1.80;;;;;;;17.96;57.11;101162.25;5052127;28;20565;-65
2024/01/24 07:52:57;;;;;;;12.10;1.80;;;;;;;17.93;56.79;101160.13;5070625;28;20440;-65
2024/01/24 07:55:22;;;;;;;12.13;1.90;;;;;;;17.98;56.41;101170.50;5038684;28;20605;-65
2024/01/24 07:57:48;;;;;;;12.77;2.23;;;;;;;17.95;56.62;101174.88;5055960;28;20185;-65
2024/01/24 08:00:16;;;;;;;7.40;1.70;;;;;;;17.96;56.88;101167.16;5039641;28;20186;-65
2024/01/24 08:02:45;;;;;;;9.53;2.20;;;;;;;18.00;56.53;101170.94;5039157;28;20427;-65
2024/01/24 08:05:13;;;;;;;10.10;1.93;;;;;;;17.98;56.72;101182.75;5034752;28;20505;-64
2024/01/24 08:07:40;;;;;;;10.60;2.10;;;;;;;17.96;56.76;101181.44;5056210;28;20451;-64
2024/01/24 08:10:10;;;;;;;8.63;1.60;;;;;;;17.96;56.54;101170.84;5089285;28;20538;-64
2024/01/24 08:12:37;;;;;;;8.13;1.73;;;;;;;17.99;56.27;101175.00;5055163;28;20428;-64
2024/01/24 08:15:05;;;;;;;8.73;1.80;;;;;;;18.02;56.03;101169.41;5072161;28;20452;-64
2024/01/24 08:17:30;;;;;;;8.10;1.77;;;;;;;18.01;56.07;101159.16;5071063;28;20497;-65
2024/01/24 08:19:56;;;;;;;8.60;2.00;;;;;;;17.99;56.31;101152.16;5071158;28;20456;-65
2024/01/24 08:22:22;;;;;;;7.20;1.60;;;;;;;17.96;56.15;101147.97;5070728;28;20163;-64
2024/01/24 08:24:48;;;;;;;7.00;1.57;;;;;;;17.99;56.40;101146.44;5066020;28;20224;-65
2024/01/24 08:27:13;;;;;;;12.90;2.27;;;;;;;17.95;56.14;101136.91;5070531;28;20464;-64
2024/01/24 08:29:39;;;;;;;8.43;2.43;;;;;;;17.97;55.87;101148.81;5049549;28;20237;-65
2024/01/24 08:32:04;;;;;;;13.03;2.00;;;;;;;17.98;55.70;101150.50;5037627;28;20255;-66
2024/01/24 08:34:30;;;;;;;8.03;1.97;;;;;;;17.95;55.99;101149.19;5052578;28;20183;-64
2024/01/24 08:36:55;;;;;;;10.83;2.00;;;;;;;17.97;56.11;101149.63;5068875;28;20701;-64
2024/01/24 08:39:21;;;;;;;8.73;1.70;;;;;;;17.96;55.95;101136.56;5069739;28;20693;-65
2024/01/24 08:41:46;;;;;;;11.27;1.50;;;;;;;17.96;55.71;101147.16;5053979;28;20868;-65
2024/01/24 08:44:12;;;;;;;5.83;1.40;;;;;;;17.96;55.59;101147.97;5036039;28;20645;-64
2024/01/24 08:46:37;;;;;;;7.60;1.83;;;;;;;18.00;55.48;101156.66;5034352;28;20186;-64
2024/01/24 08:49:03;;;;;;;8.23;1.97;;;;;;;17.93;56.18;101154.44;5051549;28;20618;-65
2024/01/24 08:51:31;;;;;;;6.20;2.17;;;;;;;17.95;55.77;101171.19;5053802;28;20223;-64
2024/01/24 08:53:58;;;;;;;11.67;1.83;;;;;;;18.00;55.24;101168.94;5039087;28;20186;-65
2024/01/24 08:56:24;;;;;;;5.43;1.30;;;;;;;17.97;55.90;101171.69;5070493;28;20487;-64
2024/01/24 08:58:49;;;;;;;6.43;1.53;;;;;;;17.97;55.61;101178.22;5071729;28;21207;-64
2024/01/24 09:01:15;;;;;;;4.33;1.20;;;;;;;18.01;55.27;101190.59;5057539;28;20846;-65
2024/01/24 09:03:41;;;;;;;5.43;2.03;;;;;;;17.98;55.80;101199.06;5054846;28;20942;-65
2024/01/24 09:06:07;;;;;;;11.57;2.13;;;;;;;17.98;55.27;101202.75;5054470;28;20181;-67
2024/01/24 09:08:32;;;;;;;9.97;1.80;;;;;;;17.97;55.61;101200.25;5050915;28;20432;-64
2024/01/24 09:10:58;;;;;;;6.70;2.03;;;;;;;17.93;55.63;101180.13;5089092;28;20239;-64
2024/01/24 09:13:23;;;;;;;7.00;1.33;;;;;;;17.97;55.56;101189.63;5053875;28;20210;-65
2024/01/24 09:15:49;;;;;;;6.27;1.80;;;;;;;17.93;55.69;101191.56;5069603;28;20179;-64
2024/01/24 09:18:14;;;;;;;10.50;1.73;;;;;;;17.97;55.38;101188.81;5053122;28;20228;-64
2024/01/24 09:20:40;;;;;;;7.60;1.83;;;;;;;17.96;55.44;101193.69;5065678;28;20511;-66
2024/01/24 09:23:05;;;;;;;7.53;1.90;;;;;;;17.97;55.34;101195.34;5046132;28;20197;-65
2024/01/24 09:25:31;;;;;;;3.73;1.43;;;;;;;17.98;55.29;101202.75;5049252;28;20225;-65
2024/01/24 09:27:56;;;;;;;6.57;2.30;;;;;;;17.99;55.41;101210.13;5023125;28;20230;-65
2024/01/24 09:30:22;;;;;;;4.60;1.20;;;;;;;17.96;55.15;101210.84;5068603;28;20206;-65
2024/01/24 09:32:47;;;;;;;5.03;1.30;;;;;;;17.99;55.04;101209.28;5069470;28;20175;-65
2024/01/24 09:35:13;;;;;;;8.10;1.70;;;;;;;17.98;54.82;101208.47;5069858;28;20175;-67
2024/01/24 09:37:38;;;;;;;5.77;1.50;;;;;;;17.97;55.05;101215.34;5036281;28;20186;-65
2024/01/24 09:40:05;;;;;;;6.70;1.23;;;;;;;17.97;55.15;101218.22;5051672;28;20233;-65
2024/01/24 09:42:30;;;;;;;14.50;1.70;;;;;;;17.97;55.45;101206.78;5058569;28;20199;-65
2024/01/24 09:44:57;;;;;;;8.80;1.63;;;;;;;17.98;55.38;101214.19;5043606;28;20776;-64
2024/01/24 09:47:23;;;;;;;6.00;1.53;;;;;;;17.96;55.36;101210.84;5069825;28;20197;-64
2024/01/24 09:49:48;;;;;;;7.03;1.67;;;;;;;17.96;55.01;101222.25;5053840;28;20420;-66
2024/01/24 09:52:14;;;;;;;4.27;1.50;;;;;;;17.95;55.33;101226.31;5054286;28;20234;-64
2024/01/24 09:54:40;;;;;;;8.90;1.80;;;;;;;17.96;55.26;101233.69;5090012;28;20179;-64
2024/01/24 09:57:06;;;;;;;7.83;2.40;;;;;;;17.96;54.95;101241.44;5058321;28;20201;-65
2024/01/24 09:59:31;;;;;;;4.70;1.20;;;;;;;17.95;55.54;101240.59;5056589;28;20171;-65
2024/01/24 10:01:57;;;;;;;7.40;1.53;;;;;;;17.96;54.96;101239.41;5057229;28;20814;-64
2024/01/24 10:04:22;;;;;;;8.13;1.83;;;;;;;17.97;54.97;101246.78;5054324;28;21015;-66
2024/01/24 10:06:48;;;;;;;6.30;1.80;;;;;;;18.00;54.65;101250.94;5054936;28;20583;-64
2024/01/24 10:09:14;;;;;;;3.33;1.27;;;;;;;17.96;55.13;101247.97;5073738;28;20186;-65
2024/01/24 10:11:39;;;;;;;3.17;1.43;;;;;;;18.00;54.60;101256.66;5057304;28;20202;-65
2024/01/24 10:14:05;;;;;;;3.93;1.23;;;;;;;17.95;55.05;101260.59;5056559;28;20299;-66
2024/01/24 10:16:30;;;;;;;4.97;1.53;;;;;;;18.00;54.75;101250.94;5052048;28;20221;-65
2024/01/24 10:18:56;;;;;;;4.43;1.10;;;;;;;17.99;54.75;101258.72;5069534;28;20182;-66
2024/01/24 10:21:22;;;;;;;5.63;1.40;;;;;;;17.96;54.69;101252.88;5040370;28;20723;-64
2024/01/24 10:23:47;;;;;;;7.73;1.80;;;;;;;17.98;55.21;101242.75;5038900;28;20527;-64
2024/01/24 10:26:14;;;;;;;4.30;1.47;;;;;;;18.00;54.72;101250.94;5056383;28;20295;-65
2024/01/24 10:28:39;;;;;;;4.27;1.33;;;;;;;17.98;54.79;101257.03;5057102;28;20186;-65
2024/01/24 10:31:06;;;;;;;7.20;1.50;;;;;;;17.97;55.24;101261.06;5057404;28;20471;-66
2024/01/24 10:33:31;;;;;;;4.63;2.13;;;;;;;17.97;54.93;101263.91;5054128;28;20190;-65
2024/01/24 10:35:57;;;;;;;3.17;1.20;;;;;;;17.99;54.97;101255.84;5057761;28;20397;-64
2024/01/24 10:38:23;;;;;;;6.10;1.60;;;;;;;17.98;54.29;101257.03;5073393;28;20311;-64
2024/01/24 10:40:51;;;;;;;6.60;1.70;;;;;;;17.98;54.75;101264.78;5056778;28;20194;-64
2024/01/24 10:43:16;;;;;;;5.70;1.50;;;;;;;18.00;54.55;101276.66;5056572;28;20191;-65
2024/01/24 10:45:43;;;;;;;4.30;1.03;;;;;;;17.99;54.68;101281.56;5050578;28;20434;-65
2024/01/24 10:48:10;;;;;;;5.70;1.57;;;;;;;18.01;54.88;101270.59;5053673;28;20151;-64
2024/01/24 10:50:39;;;;;;;6.30;1.43;;;;;;;18.01;54.18;101293.47;5055048;28;20547;-65
2024/01/24 10:53:05;;;;;;;3.23;1.10;;;;;;;18.02;54.55;101277.16;5052991;28;20469;-64
2024/01/24 10:55:31;;;;;;;6.63;1.47;;;;;;;18.04;54.59;101292.75;5072594;28;20466;-64
2024/01/24 10:57:56;;;;;;;8.33;1.50;;;;;;;17.99;54.87;101315.84;5056641;28;20186;-64
2024/01/24 11:00:22;;;;;;;9.83;1.30;;;;;;;18.00;54.74;101311.81;5039658;28;20419;-64
2024/01/24 11:02:49;;;;;;;3.83;1.40;;;;;;;18.04;54.55;101300.50;5072492;28;20174;-64
2024/01/24 11:05:36;;;;;;;4.77;1.20;;;;;;;17.98;54.82;101311.34;5040179;28;20166;-64
2024/01/24 11:08:05;;;;;;;3.23;1.23;;;;;;;18.00;54.64;101314.66;5089081;28;20415;-66
2024/01/24 11:10:39;;;;;;;3.70;1.23;;;;;;;18.04;54.57;101306.22;5052078;28;20497;-65
2024/01/24 11:13:05;;;;;;;6.60;1.60;;;;;;;18.03;54.59;101313.13;5068556;28;20386;-65
2024/01/24 11:15:31;;;;;;;4.83;1.17;;;;;;;18.01;55.10;101306.94;5053904;28;21093;-66
2024/01/24 11:18:22;;;;;;;3.10;1.20;;;;;;;18.00;54.63;101314.66;5051515;28;20187;-64